Time;durP1;ratioP1;P1;durP2;ratioP2;P2;SDS_P1;SDS_P2;PMS_P1;PMS_P2;Temp;Humidity;BMP_temperature;BMP_pressure;BME280_temperature;BME280_humidity;BME280_pressure;Samples;Min_cycle;Max_cycle;Signal;HPM_P1;HPM_P2
2023/09/16 00:00:43;;;;;;;12.05;8.25;;;;;;;;;;4955427;29;20054;-76
2023/09/16 00:03:09;;;;;;;12.35;9.73;;;;;;;;;;4955125;29;20051;-76
2023/09/16 00:05:38;;;;;;;11.25;9.07;;;;;;;;;;4954976;29;20043;-76
2023/09/16 00:08:05;;;;;;;12.02;9.52;;;;;;;;;;4952113;29;20418;-76
2023/09/16 00:10:32;;;;;;;12.82;10.27;;;;;;;;;;4953098;29;20778;-75
2023/09/16 00:13:00;;;;;;;14.73;11.52;;;;;;;;;;4952713;29;20046;-75
2023/09/16 00:15:27;;;;;;;13.23;11.80;;;;;;;;;;4937658;29;20062;-75
2023/09/16 00:17:53;;;;;;;13.57;11.73;;;;;;;;;;4955012;29;20410;-76
2023/09/16 00:20:19;;;;;;;15.32;11.48;;;;;;;;;;4954853;29;20055;-75
2023/09/16 00:22:46;;;;;;;14.20;10.95;;;;;;;;;;4954656;29;20047;-75
2023/09/16 00:25:14;;;;;;;12.05;10.20;;;;;;;;;;4935797;29;20094;-75
2023/09/16 00:27:40;;;;;;;12.18;10.57;;;;;;;;;;4954719;29;20047;-75
2023/09/16 00:30:07;;;;;;;13.38;10.82;;;;;;;;;;4954632;28;20537;-76
2023/09/16 00:32:34;;;;;;;13.93;11.73;;;;;;;;;;4937952;29;20076;-75
2023/09/16 00:35:00;;;;;;;16.33;11.57;;;;;;;;;;4953315;28;20114;-75
2023/09/16 00:37:26;;;;;;;12.30;10.63;;;;;;;;;;4953442;29;20508;-75
2023/09/16 00:39:52;;;;;;;13.25;11.38;;;;;;;;;;4954374;29;20858;-75
2023/09/16 00:42:18;;;;;;;10.50;8.40;;;;;;;;;;4953707;29;20047;-76
2023/09/16 00:44:44;;;;;;;11.85;9.18;;;;;;;;;;4954466;29;20075;-75
2023/09/16 00:47:11;;;;;;;11.25;9.32;;;;;;;;;;4954541;29;20407;-77
2023/09/16 00:49:38;;;;;;;13.20;10.98;;;;;;;;;;4954599;29;20055;-76
2023/09/16 00:52:04;;;;;;;13.48;9.93;;;;;;;;;;4955060;29;20090;-75
2023/09/16 00:54:30;;;;;;;14.13;10.52;;;;;;;;;;4954172;29;20054;-76
2023/09/16 00:56:57;;;;;;;16.48;11.00;;;;;;;;;;4952529;29;20521;-76
2023/09/16 00:59:24;;;;;;;11.05;9.40;;;;;;;;;;4954770;28;20055;-76
2023/09/16 01:01:51;;;;;;;11.52;8.45;;;;;;;;;;4958490;29;20047;-76
2023/09/16 01:04:18;;;;;;;9.82;8.63;;;;;;;;;;4958215;29;20548;-76
2023/09/16 01:06:44;;;;;;;13.20;9.48;;;;;;;;;;4958105;29;20040;-75
2023/09/16 01:09:15;;;;;;;11.38;9.57;;;;;;;;;;4956570;29;20051;-75
2023/09/16 01:11:42;;;;;;;11.57;9.43;;;;;;;;;;4932654;29;20055;-75
2023/09/16 01:14:11;;;;;;;20.05;13.00;;;;;;;;;;4939902;29;20051;-77
2023/09/16 01:16:53;;;;;;;15.15;13.52;;;;;;;;;;4957484;29;20070;-76
2023/09/16 01:19:38;;;;;;;15.95;14.05;;;;;;;;;;4957167;29;20047;-75
2023/09/16 01:22:05;;;;;;;15.77;14.10;;;;;;;;;;4956982;29;20039;-76
2023/09/16 01:24:31;;;;;;;16.17;13.77;;;;;;;;;;4940416;29;20056;-76
2023/09/16 01:26:57;;;;;;;16.23;14.35;;;;;;;;;;4957033;29;20051;-76
2023/09/16 01:29:24;;;;;;;17.77;14.88;;;;;;;;;;4957923;29;20047;-76
2023/09/16 01:31:50;;;;;;;18.38;15.02;;;;;;;;;;4957038;29;20414;-76
2023/09/16 01:34:36;;;;;;;20.60;16.92;;;;;;;;;;4957217;29;20075;-76
2023/09/16 01:37:03;;;;;;;17.13;15.32;;;;;;;;;;4943252;29;20048;-76
2023/09/16 01:39:30;;;;;;;16.88;14.95;;;;;;;;;;4957520;29;20051;-76
2023/09/16 01:41:56;;;;;;;17.30;14.18;;;;;;;;;;4957021;29;20406;-76
2023/09/16 01:44:23;;;;;;;18.42;15.57;;;;;;;;;;4957710;29;20051;-76
2023/09/16 01:46:49;;;;;;;16.38;14.68;;;;;;;;;;4956963;29;20047;-76
2023/09/16 01:49:15;;;;;;;16.67;14.82;;;;;;;;;;4955722;28;20078;-76
2023/09/16 01:51:41;;;;;;;17.50;15.60;;;;;;;;;;4957485;28;20058;-76
2023/09/16 01:54:07;;;;;;;20.13;16.48;;;;;;;;;;4957029;29;20402;-76
2023/09/16 01:56:33;;;;;;;18.70;16.13;;;;;;;;;;4956713;29;20047;-76
2023/09/16 01:59:00;;;;;;;16.90;15.10;;;;;;;;;;4956124;29;20047;-76
2023/09/16 02:01:26;;;;;;;19.80;16.10;;;;;;;;;;4957492;29;20134;-76
2023/09/16 02:03:52;;;;;;;17.60;15.77;;;;;;;;;;4957484;29;20490;-76
2023/09/16 02:06:18;;;;;;;18.48;16.27;;;;;;;;;;4957482;29;20130;-76
2023/09/16 02:08:44;;;;;;;20.38;18.38;;;;;;;;;;4957136;29;20098;-76
2023/09/16 02:11:10;;;;;;;21.85;17.35;;;;;;;;;;4956489;28;20398;-76
2023/09/16 02:13:36;;;;;;;19.92;17.77;;;;;;;;;;4956791;29;20103;-76
2023/09/16 02:16:02;;;;;;;23.25;17.75;;;;;;;;;;4939416;29;20055;-76
2023/09/16 02:18:28;;;;;;;20.77;17.40;;;;;;;;;;4956457;29;20051;-76
2023/09/16 02:20:54;;;;;;;21.60;16.38;;;;;;;;;;4956978;29;20198;-76
2023/09/16 02:23:22;;;;;;;19.42;17.15;;;;;;;;;;4956766;29;20410;-76
2023/09/16 02:25:48;;;;;;;19.58;16.58;;;;;;;;;;4956031;29;20043;-76
2023/09/16 02:28:14;;;;;;;19.38;17.38;;;;;;;;;;4955284;29;20043;-75
2023/09/16 02:30:40;;;;;;;19.58;17.58;;;;;;;;;;4956835;29;20055;-76
2023/09/16 02:33:06;;;;;;;21.95;17.98;;;;;;;;;;4956245;29;20051;-75
2023/09/16 02:35:32;;;;;;;20.80;18.58;;;;;;;;;;4956305;28;20834;-76
2023/09/16 02:37:58;;;;;;;19.88;17.77;;;;;;;;;;4954933;29;20122;-75
2023/09/16 02:40:25;;;;;;;20.23;17.35;;;;;;;;;;4955817;29;20047;-75
2023/09/16 02:42:51;;;;;;;23.00;17.83;;;;;;;;;;4956059;29;20055;-76
2023/09/16 02:45:17;;;;;;;20.15;18.02;;;;;;;;;;4956538;28;20051;-76
2023/09/16 02:47:43;;;;;;;23.58;18.25;;;;;;;;;;4956667;29;20058;-76
2023/09/16 02:50:09;;;;;;;23.17;18.25;;;;;;;;;;4955202;29;20054;-76
2023/09/16 02:52:35;;;;;;;20.90;18.27;;;;;;;;;;4939469;29;20399;-76
2023/09/16 02:55:01;;;;;;;21.98;17.85;;;;;;;;;;4923350;29;20055;-76
2023/09/16 02:57:28;;;;;;;19.52;17.50;;;;;;;;;;4955493;29;20055;-76
2023/09/16 02:59:54;;;;;;;21.65;18.65;;;;;;;;;;4955122;29;20051;-75
2023/09/16 03:02:20;;;;;;;21.33;18.85;;;;;;;;;;4956077;29;20506;-76
2023/09/16 03:04:46;;;;;;;24.52;18.35;;;;;;;;;;4955579;29;20517;-76
2023/09/16 03:07:12;;;;;;;26.08;18.85;;;;;;;;;;4923441;29;20055;-76
2023/09/16 03:09:38;;;;;;;22.92;19.33;;;;;;;;;;4955884;29;20054;-75
2023/09/16 03:12:04;;;;;;;24.00;20.65;;;;;;;;;;4954662;29;20058;-76
2023/09/16 03:14:30;;;;;;;21.67;18.98;;;;;;;;;;4939116;29;20070;-76
2023/09/16 03:16:56;;;;;;;23.02;19.70;;;;;;;;;;4938921;29;20055;-76
2023/09/16 03:19:23;;;;;;;22.48;19.15;;;;;;;;;;4938851;29;20051;-77
2023/09/16 03:21:49;;;;;;;23.38;20.25;;;;;;;;;;4938202;29;20465;-76
2023/09/16 03:24:15;;;;;;;22.75;20.15;;;;;;;;;;4954103;28;20146;-75
2023/09/16 03:26:41;;;;;;;22.13;19.13;;;;;;;;;;4954624;29;20055;-76
2023/09/16 03:29:07;;;;;;;21.52;19.08;;;;;;;;;;4955918;29;20482;-76
2023/09/16 03:31:33;;;;;;;20.80;18.42;;;;;;;;;;4955757;29;20058;-76
2023/09/16 03:33:59;;;;;;;20.13;17.98;;;;;;;;;;4955557;29;20082;-76
2023/09/16 03:36:26;;;;;;;20.60;18.60;;;;;;;;;;4938283;29;20494;-76
2023/09/16 03:38:52;;;;;;;19.55;17.48;;;;;;;;;;4937967;29;20047;-76
2023/09/16 03:41:18;;;;;;;20.58;18.48;;;;;;;;;;4937534;29;20553;-76
2023/09/16 03:43:44;;;;;;;22.25;19.33;;;;;;;;;;4955652;29;20156;-76
2023/09/16 03:46:10;;;;;;;21.08;18.98;;;;;;;;;;4955355;29;20051;-77
2023/09/16 03:48:36;;;;;;;23.52;20.38;;;;;;;;;;4955530;29;20047;-76
2023/09/16 03:51:07;;;;;;;24.27;21.10;;;;;;;;;;4937612;29;20076;-76
2023/09/16 03:53:33;;;;;;;24.52;22.02;;;;;;;;;;4954027;29;20498;-76
2023/09/16 03:55:59;;;;;;;22.63;20.23;;;;;;;;;;4954025;29;20039;-76
2023/09/16 03:58:25;;;;;;;21.83;19.48;;;;;;;;;;4955203;29;20462;-76
2023/09/16 04:00:51;;;;;;;22.88;20.48;;;;;;;;;;4955348;29;20055;-76
2023/09/16 04:03:17;;;;;;;23.80;21.38;;;;;;;;;;4955284;29;20039;-76
2023/09/16 04:05:43;;;;;;;24.55;21.33;;;;;;;;;;4955329;29;20047;-76
2023/09/16 04:08:09;;;;;;;26.08;21.00;;;;;;;;;;4954904;29;20051;-77
2023/09/16 04:10:36;;;;;;;27.35;21.00;;;;;;;;;;4953263;29;20552;-76
2023/09/16 04:13:02;;;;;;;23.40;21.08;;;;;;;;;;4955195;29;20473;-76
2023/09/16 04:15:28;;;;;;;22.85;20.52;;;;;;;;;;4955299;29;20405;-76
2023/09/16 04:17:54;;;;;;;25.20;22.50;;;;;;;;;;4955450;29;20051;-76
2023/09/16 04:20:20;;;;;;;24.83;22.23;;;;;;;;;;4953811;29;20047;-76
2023/09/16 04:22:46;;;;;;;23.63;21.20;;;;;;;;;;4954578;28;20047;-76
2023/09/16 04:25:12;;;;;;;29.85;22.20;;;;;;;;;;4954043;29;20498;-76
2023/09/16 04:27:38;;;;;;;25.20;22.55;;;;;;;;;;4954354;29;20055;-77
2023/09/16 04:30:05;;;;;;;28.13;23.13;;;;;;;;;;4953882;28;20518;-77
2023/09/16 04:32:31;;;;;;;24.80;22.15;;;;;;;;;;4953345;29;20486;-76
2023/09/16 04:34:58;;;;;;;17.60;15.80;;;;;;;;;;4954488;28;20043;-76
2023/09/16 04:37:24;;;;;;;18.65;16.65;;;;;;;;;;4958917;28;20047;-76
2023/09/16 04:39:50;;;;;;;20.00;17.92;;;;;;;;;;4941704;29;20161;-76
2023/09/16 04:42:16;;;;;;;22.65;20.33;;;;;;;;;;4958256;29;20499;-76
2023/09/16 04:44:44;;;;;;;28.33;22.15;;;;;;;;;;4956507;29;20047;-75
2023/09/16 04:47:10;;;;;;;22.83;20.63;;;;;;;;;;4941092;29;20059;-76
2023/09/16 04:49:36;;;;;;;23.38;21.08;;;;;;;;;;4958661;29;20055;-76
2023/09/16 04:52:04;;;;;;;23.27;20.77;;;;;;;;;;4941888;29;20078;-76
2023/09/16 04:54:32;;;;;;;25.52;22.83;;;;;;;;;;4955193;28;20051;-76
2023/09/16 04:56:59;;;;;;;20.90;18.48;;;;;;;;;;4958294;29;20414;-75
2023/09/16 04:59:25;;;;;;;23.15;20.80;;;;;;;;;;4957516;29;20387;-76
2023/09/16 05:01:52;;;;;;;22.77;20.48;;;;;;;;;;4956499;29;20054;-76
2023/09/16 05:04:18;;;;;;;20.40;18.30;;;;;;;;;;4956579;29;20051;-76
2023/09/16 05:06:44;;;;;;;18.48;16.67;;;;;;;;;;4956887;29;20051;-76
2023/09/16 05:09:10;;;;;;;18.15;16.13;;;;;;;;;;4939348;29;20442;-76
2023/09/16 05:11:37;;;;;;;17.88;15.98;;;;;;;;;;4956722;29;20061;-76
2023/09/16 05:14:03;;;;;;;17.77;15.98;;;;;;;;;;4939218;29;20050;-76
2023/09/16 05:16:29;;;;;;;17.88;16.15;;;;;;;;;;4956837;29;20055;-76
2023/09/16 05:18:55;;;;;;;18.85;17.05;;;;;;;;;;4957308;29;20047;-76
2023/09/16 05:21:21;;;;;;;18.45;16.65;;;;;;;;;;4957370;29;20047;-76
2023/09/16 05:23:47;;;;;;;18.77;16.88;;;;;;;;;;4956659;29;20406;-76
2023/09/16 05:26:14;;;;;;;18.85;16.95;;;;;;;;;;4957243;29;20085;-77
2023/09/16 05:28:40;;;;;;;18.80;16.90;;;;;;;;;;4957311;29;20109;-77
2023/09/16 05:31:06;;;;;;;21.17;16.65;;;;;;;;;;4957348;29;20047;-77
2023/09/16 05:33:32;;;;;;;18.30;16.42;;;;;;;;;;4955993;29;20042;-76
2023/09/16 05:35:58;;;;;;;18.15;16.30;;;;;;;;;;4956992;29;20120;-77
2023/09/16 05:38:24;;;;;;;19.65;16.90;;;;;;;;;;4956974;29;20503;-76
2023/09/16 05:40:51;;;;;;;19.25;17.10;;;;;;;;;;4955612;29;20062;-77
2023/09/16 05:43:17;;;;;;;18.20;16.23;;;;;;;;;;4955258;29;20055;-76
2023/09/16 05:45:43;;;;;;;19.20;17.20;;;;;;;;;;4956098;28;20135;-76
2023/09/16 05:48:10;;;;;;;20.73;18.73;;;;;;;;;;4939340;29;20058;-76
2023/09/16 05:50:36;;;;;;;18.48;16.58;;;;;;;;;;4956633;29;20059;-76
2023/09/16 05:53:03;;;;;;;21.00;18.80;;;;;;;;;;4939419;29;20055;-76
2023/09/16 05:55:29;;;;;;;21.48;19.13;;;;;;;;;;4956176;29;20502;-77
2023/09/16 05:57:55;;;;;;;20.15;18.20;;;;;;;;;;4956875;29;20103;-77
2023/09/16 06:00:21;;;;;;;19.27;17.38;;;;;;;;;;4939039;29;20051;-77
2023/09/16 06:02:48;;;;;;;18.95;17.15;;;;;;;;;;4955955;29;20059;-77
2023/09/16 06:05:14;;;;;;;17.83;16.02;;;;;;;;;;4935734;29;20159;-77
2023/09/16 06:07:41;;;;;;;18.08;15.80;;;;;;;;;;4956609;29;20516;-77
2023/09/16 06:10:08;;;;;;;18.40;14.70;;;;;;;;;;4939294;29;20047;-77
2023/09/16 06:12:34;;;;;;;15.95;14.35;;;;;;;;;;4923351;29;20471;-77
2023/09/16 06:15:00;;;;;;;13.55;11.73;;;;;;;;;;4926062;29;20518;-77
2023/09/16 06:17:26;;;;;;;14.60;12.60;;;;;;;;;;4937332;29;20055;-79
2023/09/16 06:19:54;;;;;;;13.25;11.95;;;;;;;;;;4946344;29;20043;-77
2023/09/16 06:22:23;;;;;;;12.60;11.18;;;;;;;;;;4954349;29;20062;-77
2023/09/16 06:24:51;;;;;;;11.00;9.88;;;;;;;;;;4950603;29;20422;-76
2023/09/16 06:27:17;;;;;;;13.00;11.10;;;;;;;;;;4954079;29;20114;-76
2023/09/16 06:29:43;;;;;;;14.32;12.93;;;;;;;;;;4956455;29;20043;-76
2023/09/16 06:32:10;;;;;;;12.63;11.32;;;;;;;;;;4922102;29;20043;-74
2023/09/16 06:34:36;;;;;;;14.30;12.57;;;;;;;;;;4956005;28;20039;-73
2023/09/16 06:37:05;;;;;;;13.20;11.65;;;;;;;;;;4956225;28;20435;-74
2023/09/16 06:39:31;;;;;;;12.98;11.13;;;;;;;;;;4951891;29;20055;-75
2023/09/16 06:41:58;;;;;;;13.48;12.07;;;;;;;;;;4934184;29;20043;-74
2023/09/16 06:44:24;;;;;;;13.90;12.50;;;;;;;;;;4934086;28;20519;-75
2023/09/16 06:46:50;;;;;;;13.25;11.75;;;;;;;;;;4954164;29;20039;-75
2023/09/16 06:49:19;;;;;;;13.68;11.82;;;;;;;;;;4948169;29;20055;-74
2023/09/16 06:51:45;;;;;;;13.77;12.38;;;;;;;;;;4953657;29;20413;-74
2023/09/16 06:54:11;;;;;;;14.02;12.30;;;;;;;;;;4952387;29;20118;-74
2023/09/16 06:56:37;;;;;;;14.52;13.02;;;;;;;;;;4953906;29;20039;-73
2023/09/16 06:59:03;;;;;;;14.23;12.82;;;;;;;;;;4951810;28;20155;-74
2023/09/16 07:01:30;;;;;;;16.23;13.45;;;;;;;;;;4952720;29;20089;-74
2023/09/16 07:03:57;;;;;;;15.55;13.30;;;;;;;;;;4953398;29;20051;-74
2023/09/16 07:06:23;;;;;;;14.57;13.02;;;;;;;;;;4953618;29;20491;-74
2023/09/16 07:08:49;;;;;;;14.88;13.13;;;;;;;;;;4949833;29;20051;-75
2023/09/16 07:11:17;;;;;;;13.07;11.50;;;;;;;;;;4953008;29;20499;-75
2023/09/16 07:13:43;;;;;;;14.52;12.40;;;;;;;;;;4950810;29;20134;-74
2023/09/16 07:16:11;;;;;;;14.23;12.73;;;;;;;;;;4953408;29;20099;-74
2023/09/16 07:18:37;;;;;;;15.35;12.70;;;;;;;;;;4954388;29;20490;-74
2023/09/16 07:21:03;;;;;;;19.35;12.90;;;;;;;;;;4933564;29;20047;-74
2023/09/16 07:23:29;;;;;;;14.70;13.20;;;;;;;;;;4955767;28;20094;-76
2023/09/16 07:25:56;;;;;;;14.57;13.00;;;;;;;;;;4958109;28;20051;-75
2023/09/16 07:28:23;;;;;;;46.08;17.35;;;;;;;;;;4959687;28;20134;-75
2023/09/16 07:30:49;;;;;;;18.92;14.65;;;;;;;;;;4959720;28;20046;-74
2023/09/16 07:33:15;;;;;;;114.80;26.67;;;;;;;;;;4954490;29;20118;-74
2023/09/16 07:35:41;;;;;;;26.30;14.73;;;;;;;;;;4953945;29;20051;-74
2023/09/16 07:38:08;;;;;;;16.90;14.57;;;;;;;;;;4954581;28;20043;-74
2023/09/16 07:40:35;;;;;;;68.05;18.42;;;;;;;;;;4954071;29;20063;-75
2023/09/16 07:43:02;;;;;;;17.05;14.90;;;;;;;;;;4954287;29;20490;-74
2023/09/16 07:45:28;;;;;;;21.30;13.98;;;;;;;;;;4936538;29;20043;-74
2023/09/16 07:47:54;;;;;;;19.00;14.95;;;;;;;;;;4953162;29;20062;-74
2023/09/16 07:50:20;;;;;;;22.45;15.40;;;;;;;;;;4953426;29;20054;-75
2023/09/16 07:52:46;;;;;;;20.38;14.60;;;;;;;;;;4952560;29;20059;-75
2023/09/16 07:55:12;;;;;;;15.88;14.18;;;;;;;;;;4952752;29;20047;-75
2023/09/16 07:57:38;;;;;;;16.05;14.38;;;;;;;;;;4953538;29;20473;-75
2023/09/16 08:00:07;;;;;;;15.48;13.98;;;;;;;;;;4932272;29;20043;-74
2023/09/16 08:02:34;;;;;;;18.08;14.30;;;;;;;;;;4950947;29;20039;-74
2023/09/16 08:05:00;;;;;;;26.27;15.00;;;;;;;;;;4951419;29;20047;-75
2023/09/16 08:07:26;;;;;;;18.63;14.63;;;;;;;;;;4953200;29;20113;-75
2023/09/16 08:09:52;;;;;;;15.45;13.48;;;;;;;;;;4952405;28;20055;-74
2023/09/16 08:12:19;;;;;;;62.50;20.02;;;;;;;;;;4947822;29;20490;-74
2023/09/16 08:14:46;;;;;;;86.93;19.70;;;;;;;;;;4947510;29;20126;-74
2023/09/16 08:17:12;;;;;;;25.33;14.32;;;;;;;;;;4952408;29;20450;-74
2023/09/16 08:19:38;;;;;;;19.20;14.23;;;;;;;;;;4949079;29;20038;-75
2023/09/16 08:22:04;;;;;;;15.43;12.98;;;;;;;;;;4943367;29;20494;-75
2023/09/16 08:24:30;;;;;;;17.75;13.13;;;;;;;;;;4953540;29;20117;-75
2023/09/16 08:26:56;;;;;;;14.45;12.88;;;;;;;;;;4949885;29;20503;-75
2023/09/16 08:29:22;;;;;;;16.58;13.55;;;;;;;;;;4947849;29;20055;-75
2023/09/16 08:31:48;;;;;;;17.58;15.07;;;;;;;;;;4947976;29;20090;-75
2023/09/16 08:34:14;;;;;;;15.55;13.50;;;;;;;;;;4952732;29;20043;-75
2023/09/16 08:36:41;;;;;;;15.52;13.82;;;;;;;;;;4935476;29;20503;-75
2023/09/16 08:39:07;;;;;;;18.15;14.68;;;;;;;;;;4945511;29;20044;-76
2023/09/16 08:41:51;;;;;;;17.65;13.88;;;;;;;;;;4954642;29;20055;-75
2023/09/16 08:44:18;;;;;;;15.32;13.75;;;;;;;;;;4952179;28;20047;-75
2023/09/16 08:46:46;;;;;;;17.05;13.50;;;;;;;;;;4953887;28;20051;-75
2023/09/16 08:49:14;;;;;;;15.43;13.80;;;;;;;;;;4952760;28;20043;-75
2023/09/16 08:51:42;;;;;;;15.27;13.32;;;;;;;;;;4965154;28;20058;-75
2023/09/16 08:54:10;;;;;;;15.18;13.68;;;;;;;;;;4948961;28;20450;-75
2023/09/16 08:56:36;;;;;;;14.15;12.63;;;;;;;;;;4951958;28;20047;-77
2023/09/16 08:59:02;;;;;;;14.80;13.30;;;;;;;;;;4936141;29;20517;-76
2023/09/16 09:01:29;;;;;;;16.17;13.32;;;;;;;;;;4954449;29;20050;-75
2023/09/16 09:03:55;;;;;;;13.85;12.32;;;;;;;;;;4951153;29;20561;-75
2023/09/16 09:06:21;;;;;;;14.43;12.07;;;;;;;;;;4953262;29;20047;-73
2023/09/16 09:08:48;;;;;;;13.95;11.43;;;;;;;;;;4953497;29;20047;-74
2023/09/16 09:11:15;;;;;;;13.10;11.52;;;;;;;;;;4954236;29;20051;-74
2023/09/16 09:13:48;;;;;;;13.63;12.20;;;;;;;;;;4954089;29;20043;-74
2023/09/16 09:16:18;;;;;;;13.10;11.70;;;;;;;;;;4952603;29;20525;-73
2023/09/16 09:18:46;;;;;;;13.73;12.23;;;;;;;;;;4942479;29;20075;-74
2023/09/16 09:21:12;;;;;;;13.85;12.48;;;;;;;;;;4953271;28;20406;-74
2023/09/16 09:23:38;;;;;;;13.25;11.77;;;;;;;;;;4954538;29;20051;-74
2023/09/16 09:26:04;;;;;;;13.05;10.18;;;;;;;;;;4961306;28;20057;-74
2023/09/16 09:28:32;;;;;;;15.80;11.60;;;;;;;;;;4954785;28;20109;-74
2023/09/16 09:30:58;;;;;;;15.13;11.77;;;;;;;;;;4957167;29;20048;-74
2023/09/16 09:33:26;;;;;;;14.07;12.15;;;;;;;;;;4951700;29;20048;-74
2023/09/16 09:36:09;;;;;;;14.13;12.10;;;;;;;;;;4954149;29;20043;-74
2023/09/16 09:38:38;;;;;;;13.98;12.40;;;;;;;;;;4939987;29;20110;-74
2023/09/16 09:41:04;;;;;;;13.30;11.60;;;;;;;;;;4957380;29;20051;-75
2023/09/16 09:43:30;;;;;;;14.40;11.93;;;;;;;;;;4955929;29;20055;-74
2023/09/16 09:45:56;;;;;;;14.23;12.25;;;;;;;;;;4956044;29;20047;-74
2023/09/16 09:48:22;;;;;;;13.30;11.90;;;;;;;;;;4957161;29;20051;-75
2023/09/16 09:50:49;;;;;;;12.50;11.20;;;;;;;;;;4956154;29;20042;-75
2023/09/16 09:53:15;;;;;;;12.70;11.40;;;;;;;;;;4930175;29;20050;-75
2023/09/16 09:55:41;;;;;;;15.30;12.38;;;;;;;;;;4950776;29;20083;-74
2023/09/16 09:58:09;;;;;;;15.60;12.75;;;;;;;;;;4951651;29;20051;-74
2023/09/16 10:00:35;;;;;;;15.68;12.40;;;;;;;;;;4955795;28;20108;-75
2023/09/16 10:03:01;;;;;;;19.00;12.98;;;;;;;;;;4956296;28;20050;-75
2023/09/16 10:05:27;;;;;;;16.30;12.40;;;;;;;;;;4950701;29;20070;-74
2023/09/16 10:07:53;;;;;;;14.80;12.43;;;;;;;;;;4951797;29;20134;-74
2023/09/16 10:10:20;;;;;;;14.85;12.90;;;;;;;;;;4941140;29;20054;-74
2023/09/16 10:12:47;;;;;;;15.00;13.25;;;;;;;;;;4934675;29;20375;-74
2023/09/16 10:15:14;;;;;;;14.93;12.68;;;;;;;;;;4947061;29;20413;-74
2023/09/16 10:17:44;;;;;;;14.05;12.07;;;;;;;;;;4936888;29;20055;-74
2023/09/16 10:20:13;;;;;;;14.80;12.35;;;;;;;;;;4956510;29;20050;-75
2023/09/16 10:22:40;;;;;;;13.98;12.23;;;;;;;;;;4937373;29;20635;-74
2023/09/16 10:25:06;;;;;;;16.13;11.95;;;;;;;;;;4954913;28;20067;-74
2023/09/16 10:27:36;;;;;;;13.02;11.25;;;;;;;;;;4938523;29;20055;-75
2023/09/16 10:30:03;;;;;;;13.43;11.05;;;;;;;;;;4953489;29;20035;-75
2023/09/16 10:32:29;;;;;;;14.68;11.90;;;;;;;;;;4931502;29;20051;-75
2023/09/16 10:34:56;;;;;;;13.57;10.98;;;;;;;;;;4917448;29;20417;-74
2023/09/16 10:37:22;;;;;;;13.45;11.57;;;;;;;;;;4954763;29;20086;-76
2023/09/16 10:39:49;;;;;;;15.48;12.52;;;;;;;;;;4955047;29;20383;-74
2023/09/16 10:42:16;;;;;;;15.40;11.63;;;;;;;;;;4955235;29;20043;-75
2023/09/16 10:44:43;;;;;;;14.45;12.95;;;;;;;;;;4953725;29;20043;-74
2023/09/16 10:47:09;;;;;;;14.32;12.82;;;;;;;;;;4937381;29;20126;-76
2023/09/16 10:49:36;;;;;;;16.20;13.93;;;;;;;;;;4938749;29;20150;-74
2023/09/16 10:52:06;;;;;;;13.02;11.57;;;;;;;;;;4955631;29;20490;-75
2023/09/16 10:54:37;;;;;;;13.75;10.82;;;;;;;;;;4937354;29;20406;-76
2023/09/16 10:57:08;;;;;;;13.43;10.85;;;;;;;;;;4955003;28;20039;-74
2023/09/16 10:59:35;;;;;;;14.80;9.93;;;;;;;;;;4954101;29;20047;-74
2023/09/16 11:02:06;;;;;;;12.65;10.07;;;;;;;;;;4954958;29;20055;-75
2023/09/16 11:04:32;;;;;;;;;;;;;;;;;;4952388;29;20074;-74
2023/09/16 11:06:58;;;;;;;11.90;9.98;;;;;;;;;;4943011;29;20329;-75
2023/09/16 11:09:25;;;;;;;14.60;10.45;;;;;;;;;;4954472;29;20075;-74
2023/09/16 11:11:52;;;;;;;14.00;9.98;;;;;;;;;;4954748;29;20118;-75
2023/09/16 11:14:19;;;;;;;11.20;9.75;;;;;;;;;;4949581;28;20051;-74
2023/09/16 11:16:48;;;;;;;13.13;8.98;;;;;;;;;;4945609;29;20068;-74
2023/09/16 11:19:21;;;;;;;15.00;9.73;;;;;;;;;;4946643;29;20047;-74
2023/09/16 11:21:47;;;;;;;14.93;10.05;;;;;;;;;;4957440;28;20039;-74
2023/09/16 11:24:13;;;;;;;13.45;9.98;;;;;;;;;;4960415;28;20049;-74
2023/09/16 11:26:39;;;;;;;13.30;9.30;;;;;;;;;;4961947;28;20057;-74
2023/09/16 11:29:16;;;;;;;10.93;9.00;;;;;;;;;;4960486;28;20114;-75
2023/09/16 11:31:42;;;;;;;11.65;8.90;;;;;;;;;;4946532;29;20125;-74
2023/09/16 11:34:10;;;;;;;12.25;8.75;;;;;;;;;;4949633;29;20378;-73
2023/09/16 11:36:36;;;;;;;11.18;9.02;;;;;;;;;;4951535;28;20568;-74
2023/09/16 11:39:10;;;;;;;11.73;8.85;;;;;;;;;;4949735;28;20066;-74
2023/09/16 11:41:36;;;;;;;10.50;9.02;;;;;;;;;;4962531;28;20098;-75
2023/09/16 11:44:03;;;;;;;11.15;8.20;;;;;;;;;;4946790;28;20052;-74
2023/09/16 11:46:30;;;;;;;10.15;8.27;;;;;;;;;;4954069;29;20051;-75
2023/09/16 11:48:57;;;;;;;11.05;8.50;;;;;;;;;;4954535;29;20051;-75
2023/09/16 11:51:24;;;;;;;10.00;7.10;;;;;;;;;;4954949;29;20139;-75
2023/09/16 11:53:52;;;;;;;9.75;7.70;;;;;;;;;;4938653;29;20051;-75
2023/09/16 11:56:18;;;;;;;9.02;7.05;;;;;;;;;;4954558;29;20524;-75
2023/09/16 11:58:45;;;;;;;11.55;7.28;;;;;;;;;;4954344;29;20142;-76
2023/09/16 12:01:19;;;;;;;11.05;7.05;;;;;;;;;;4955133;29;20079;-75
2023/09/16 12:03:45;;;;;;;9.40;5.95;;;;;;;;;;4936540;29;20040;-75
2023/09/16 12:06:11;;;;;;;9.50;6.13;;;;;;;;;;4954331;29;20406;-75
2023/09/16 12:08:41;;;;;;;8.23;5.72;;;;;;;;;;4954177;29;20055;-75
2023/09/16 12:11:07;;;;;;;8.90;5.40;;;;;;;;;;4953746;29;20066;-75
2023/09/16 12:13:33;;;;;;;11.23;6.15;;;;;;;;;;4953649;29;20047;-75
2023/09/16 12:16:00;;;;;;;8.95;5.78;;;;;;;;;;4954003;29;20044;-75
2023/09/16 12:18:26;;;;;;;8.70;5.40;;;;;;;;;;4935442;29;20054;-72
2023/09/16 12:20:52;;;;;;;9.55;5.30;;;;;;;;;;4953680;28;20058;-75
2023/09/16 12:23:19;;;;;;;8.45;5.22;;;;;;;;;;4952736;29;20391;-76
2023/09/16 12:25:45;;;;;;;8.70;5.50;;;;;;;;;;4957750;28;20058;-75
2023/09/16 12:28:12;;;;;;;8.63;5.45;;;;;;;;;;4941816;29;20051;-73
2023/09/16 12:30:42;;;;;;;7.85;5.32;;;;;;;;;;4954371;28;20513;-75
2023/09/16 12:33:08;;;;;;;8.80;5.20;;;;;;;;;;4948580;29;20047;-75
2023/09/16 12:35:38;;;;;;;7.63;5.63;;;;;;;;;;4938648;29;20059;-76
2023/09/16 12:38:04;;;;;;;7.72;5.22;;;;;;;;;;4937324;28;20055;-76
2023/09/16 12:40:31;;;;;;;9.40;4.90;;;;;;;;;;4952713;29;20107;-75
2023/09/16 12:42:57;;;;;;;7.80;4.72;;;;;;;;;;4954293;28;20056;-75
2023/09/16 12:45:23;;;;;;;7.03;4.03;;;;;;;;;;4959959;28;20043;-75
2023/09/16 12:47:50;;;;;;;8.73;4.60;;;;;;;;;;4961712;28;20106;-73
2023/09/16 12:50:17;;;;;;;7.43;4.50;;;;;;;;;;4929951;28;20039;-74
2023/09/16 12:52:43;;;;;;;8.38;4.82;;;;;;;;;;4960921;28;20047;-75
2023/09/16 12:55:12;;;;;;;7.60;4.45;;;;;;;;;;4963343;28;20046;-75
2023/09/16 12:57:39;;;;;;;8.80;4.60;;;;;;;;;;4962384;28;20075;-74
2023/09/16 13:00:08;;;;;;;8.55;5.13;;;;;;;;;;4969169;28;20054;-76
2023/09/16 13:02:36;;;;;;;7.43;4.28;;;;;;;;;;4947368;28;20055;-75
2023/09/16 13:05:16;;;;;;;5.70;3.53;;;;;;;;;;4964003;28;20102;-74
2023/09/16 13:07:44;;;;;;;7.03;3.92;;;;;;;;;;4962360;28;20457;-75
2023/09/16 13:10:10;;;;;;;7.22;3.97;;;;;;;;;;4950203;28;20648;-76
2023/09/16 13:12:36;;;;;;;7.82;3.20;;;;;;;;;;4964088;28;20066;-75
2023/09/16 13:15:03;;;;;;;7.15;3.35;;;;;;;;;;4949645;28;20043;-75
2023/09/16 13:17:32;;;;;;;8.52;3.00;;;;;;;;;;4961469;28;20198;-75
2023/09/16 13:20:00;;;;;;;8.68;3.40;;;;;;;;;;4963086;28;20061;-75
2023/09/16 13:22:27;;;;;;;6.43;3.40;;;;;;;;;;4969956;28;20050;-76
2023/09/16 13:24:53;;;;;;;6.05;2.92;;;;;;;;;;4961872;28;20058;-75
2023/09/16 13:27:20;;;;;;;7.47;3.30;;;;;;;;;;4956494;28;20074;-75
2023/09/16 13:29:46;;;;;;;7.00;3.45;;;;;;;;;;4970125;28;20047;-76
2023/09/16 13:32:12;;;;;;;6.80;3.03;;;;;;;;;;4964998;28;20058;-75
2023/09/16 13:34:44;;;;;;;7.70;2.92;;;;;;;;;;4961242;28;20109;-75
2023/09/16 13:37:10;;;;;;;7.50;2.78;;;;;;;;;;4962740;28;20508;-75
2023/09/16 13:39:46;;;;;;;6.47;3.10;;;;;;;;;;4963463;28;20043;-74
2023/09/16 13:42:13;;;;;;;6.18;3.22;;;;;;;;;;4964148;28;20047;-74
2023/09/16 13:44:39;;;;;;;6.20;3.00;;;;;;;;;;4960187;28;20046;-75
2023/09/16 13:47:05;;;;;;;6.28;3.00;;;;;;;;;;4962485;28;20098;-74
2023/09/16 13:49:31;;;;;;;6.07;3.00;;;;;;;;;;4964964;28;20103;-75
2023/09/16 13:51:57;;;;;;;5.85;2.95;;;;;;;;;;4960923;28;20043;-74
2023/09/16 13:54:23;;;;;;;11.65;3.00;;;;;;;;;;4966577;28;20082;-75
2023/09/16 13:56:50;;;;;;;5.93;2.75;;;;;;;;;;4962141;28;20520;-75
2023/09/16 13:59:16;;;;;;;6.75;2.83;;;;;;;;;;4962308;28;20146;-75
2023/09/16 14:01:42;;;;;;;6.90;3.10;;;;;;;;;;4959699;28;20043;-75
2023/09/16 14:04:08;;;;;;;6.35;2.88;;;;;;;;;;4964653;28;20054;-75
2023/09/16 14:06:34;;;;;;;5.97;2.80;;;;;;;;;;4942957;28;20414;-75
2023/09/16 14:09:00;;;;;;;5.63;2.65;;;;;;;;;;4961439;28;20047;-74
2023/09/16 14:11:26;;;;;;;6.72;3.15;;;;;;;;;;4964436;28;20050;-77
2023/09/16 14:13:52;;;;;;;8.32;2.78;;;;;;;;;;4940094;29;20054;-75
2023/09/16 14:16:18;;;;;;;5.70;2.78;;;;;;;;;;4954887;29;20047;-75
2023/09/16 14:18:44;;;;;;;5.35;2.70;;;;;;;;;;4937611;29;20050;-74
2023/09/16 14:21:10;;;;;;;5.22;3.08;;;;;;;;;;4956256;28;20086;-74